Time;durP1;ratioP1;P1;durP2;ratioP2;P2;SDS_P1;SDS_P2;PMS_P1;PMS_P2;Temp;Humidity;BMP_temperature;BMP_pressure;BME280_temperature;BME280_humidity;BME280_pressure;Samples;Min_cycle;Max_cycle;Signal;HPM_P1;HPM_P2
2022/01/20 00:00:32;;;;;;;21.50;14.35;;;2.60;99.90;;;;;;2621534;47;20053;31
2022/01/20 00:03:13;;;;;;;22.05;14.65;;;2.60;99.90;;;;;;2621427;47;20046;31
2022/01/20 00:06:31;;;;;;;22.15;14.85;;;2.60;99.90;;;;;;2621087;47;20126;31
2022/01/20 00:09:12;;;;;;;21.45;13.40;;;2.60;99.90;;;;;;2621421;47;20045;31
2022/01/20 00:23:18;;;;;;;22.58;14.40;;;2.60;99.90;;;;;;2603850;54;20831;31
2022/01/20 00:26:01;;;;;;;24.38;13.93;;;2.60;99.90;;;;;;2603573;54;20921;31
2022/01/20 00:28:45;;;;;;;23.88;13.98;;;2.60;99.90;;;;;;2603545;54;20049;31
2022/01/20 00:31:36;;;;;;;22.30;14.15;;;2.60;99.90;;;;;;2603798;54;20762;31
2022/01/20 00:34:19;;;;;;;17.37;13.13;;;2.60;99.90;;;;;;2603921;54;20861;31
2022/01/20 00:39:42;;;;;;;19.35;12.60;;;2.60;99.90;;;;;;2603610;54;20069;31
2022/01/20 00:42:16;;;;;;;21.50;12.80;;;2.50;99.90;;;;;;2603608;54;20093;31
2022/01/20 00:44:52;;;;;;;23.70;13.40;;;2.60;99.90;;;;;;2622487;46;20051;31
2022/01/20 00:47:29;;;;;;;19.75;12.90;;;2.60;99.90;;;;;;2603753;54;20714;31
2022/01/20 00:50:13;;;;;;;17.92;13.13;;;2.60;99.90;;;;;;2603619;54;20036;31
2022/01/20 00:52:49;;;;;;;17.90;12.00;;;2.60;99.90;;;;;;2603501;54;20035;31
2022/01/20 00:55:23;;;;;;;19.93;11.97;;;2.60;99.90;;;;;;2603602;54;20970;31
2022/01/20 00:57:58;;;;;;;17.10;11.75;;;2.60;99.90;;;;;;2603675;54;20033;31
2022/01/20 01:00:35;;;;;;;15.82;11.30;;;2.70;99.90;;;;;;2603713;54;20804;31
2022/01/20 01:03:12;;;;;;;17.80;10.80;;;2.70;99.90;;;;;;2701977;39;20469;31
2022/01/20 01:06:02;;;;;;;18.50;11.30;;;2.70;99.90;;;;;;2603450;54;20026;31
2022/01/20 01:08:37;;;;;;;17.53;10.50;;;2.70;99.90;;;;;;2621966;46;20026;31
2022/01/20 01:11:19;;;;;;;15.85;10.30;;;2.70;99.90;;;;;;2603644;54;20037;31
2022/01/20 01:13:57;;;;;;;15.68;9.57;;;2.60;99.90;;;;;;2622033;46;20042;31
2022/01/20 01:19:59;;;;;;;11.00;8.00;;;2.70;99.90;;;;;;2603577;54;20033;31
2022/01/20 01:22:30;;;;;;;9.10;5.55;;;2.80;99.90;;;;;;2603624;54;20037;31
2022/01/20 01:25:04;;;;;;;8.67;6.00;;;2.80;99.90;;;;;;2603631;54;20876;31
2022/01/20 01:27:42;;;;;;;10.03;6.43;;;2.80;99.90;;;;;;2603427;54;20899;31
2022/01/20 01:30:37;;;;;;;8.10;5.90;;;2.80;99.90;;;;;;2603188;54;20266;31
2022/01/20 01:33:13;;;;;;;9.45;6.20;;;2.80;99.90;;;;;;2622103;46;20072;31
2022/01/20 01:35:58;;;;;;;8.48;6.13;;;2.90;99.90;;;;;;2603260;54;20592;31
2022/01/20 01:38:43;;;;;;;7.30;5.80;;;2.80;99.90;;;;;;2603417;54;20033;31
2022/01/20 01:43:53;;;;;;;8.82;6.20;;;2.80;99.90;;;;;;2621915;46;20929;31
2022/01/20 01:46:27;;;;;;;11.70;6.47;;;2.80;99.90;;;;;;2621819;46;20889;31
2022/01/20 01:49:06;;;;;;;8.70;5.65;;;2.90;99.90;;;;;;2610557;46;19942;31
2022/01/20 01:51:44;;;;;;;9.05;6.30;;;2.90;99.90;;;;;;2622074;46;20800;31
2022/01/20 01:54:19;;;;;;;7.23;5.33;;;2.90;99.90;;;;;;2701862;39;20466;31
2022/01/20 01:56:53;;;;;;;7.10;5.82;;;2.90;99.90;;;;;;2701964;39;20822;31
2022/01/20 01:59:37;;;;;;;7.72;5.45;;;2.90;99.90;;;;;;2603478;54;20026;31
2022/01/20 02:02:32;;;;;;;7.82;5.60;;;2.90;99.90;;;;;;2603314;54;20053;31
2022/01/20 02:05:12;;;;;;;8.02;5.18;;;2.90;99.90;;;;;;2621558;46;20023;31
2022/01/20 02:08:22;;;;;;;8.55;5.55;;;2.90;99.90;;;;;;2702026;39;20466;31
2022/01/20 02:19:27;;;;;;;7.30;5.13;;;2.90;99.90;;;;;;2622141;46;20807;31
2022/01/20 02:25:32;;;;;;;7.77;5.67;;;3.00;99.90;;;;;;2603547;54;20884;31
2022/01/20 02:28:08;;;;;;;9.00;5.75;;;3.00;99.90;;;;;;2603257;54;20026;31
2022/01/20 02:33:18;;;;;;;6.25;4.93;;;3.10;99.90;;;;;;2603234;54;20772;31
2022/01/20 02:35:58;;;;;;;6.80;4.90;;;3.00;99.90;;;;;;2603331;54;20776;31
2022/01/20 02:38:42;;;;;;;7.40;4.68;;;3.10;99.90;;;;;;2621874;46;20030;31
2022/01/20 02:46:37;;;;;;;8.15;5.03;;;3.10;99.90;;;;;;2720339;39;20454;31
2022/01/20 02:49:15;;;;;;;7.22;4.50;;;3.10;99.90;;;;;;2603095;54;20077;31
2022/01/20 02:51:51;;;;;;;5.93;4.30;;;3.10;99.90;;;;;;2621627;46;20806;31
2022/01/20 03:07:45;;;;;;;5.50;4.63;;;2.90;99.90;;;;;;2623316;53;20111;31
2022/01/20 03:10:24;;;;;;;5.63;4.10;;;3.30;99.90;;;;;;2584549;54;21031;31
2022/01/20 03:12:55;;;;;;;6.60;4.80;;;3.20;99.90;;;;;;2603197;46;20357;31
2022/01/20 03:15:34;;;;;;;6.13;4.37;;;3.20;99.90;;;;;;2584648;54;20817;31
2022/01/20 03:18:05;;;;;;;6.13;4.75;;;3.20;99.90;;;;;;2585094;54;21277;31
2022/01/20 03:20:42;;;;;;;5.78;4.40;;;3.10;99.90;;;;;;2588200;54;20892;31
2022/01/20 03:23:21;;;;;;;8.27;5.13;;;3.10;99.90;;;;;;2589498;54;21819;31
2022/01/20 03:25:56;;;;;;;6.17;4.37;;;3.10;99.90;;;;;;2594733;46;20106;31
2022/01/20 03:28:35;;;;;;;6.57;5.05;;;3.00;99.90;;;;;;2589292;54;20027;31
2022/01/20 03:31:10;;;;;;;6.83;5.03;;;3.10;99.90;;;;;;2687241;38;20588;31
2022/01/20 03:33:46;;;;;;;5.93;4.50;;;3.00;99.90;;;;;;2589160;54;21123;31
2022/01/20 03:36:20;;;;;;;7.97;4.67;;;3.10;99.90;;;;;;2589336;54;21081;31
2022/01/20 03:39:13;;;;;;;7.80;4.50;;;3.10;99.90;;;;;;2608143;46;21446;31
2022/01/20 03:41:48;;;;;;;6.20;4.20;;;3.10;99.90;;;;;;2589381;54;20100;31
2022/01/20 03:44:31;;;;;;;4.15;3.35;;;3.10;99.90;;;;;;2589499;54;21127;31
2022/01/20 03:47:04;;;;;;;6.30;4.10;;;3.10;99.90;;;;;;2589257;54;20085;31
2022/01/20 03:49:50;;;;;;;5.20;3.55;;;3.10;99.90;;;;;;2589480;54;20046;31
2022/01/20 03:52:23;;;;;;;6.70;4.00;;;3.10;99.90;;;;;;2589454;54;20033;31
2022/01/20 03:54:59;;;;;;;7.00;3.90;;;3.10;99.90;;;;;;2589402;54;20971;31
2022/01/20 03:57:37;;;;;;;5.78;4.00;;;3.10;99.90;;;;;;2607946;46;20030;31
2022/01/20 04:00:43;;;;;;;5.60;4.15;;;3.20;99.90;;;;;;2687402;38;22438;31
2022/01/20 04:03:34;;;;;;;5.53;3.80;;;3.20;99.90;;;;;;2589116;54;20053;31
2022/01/20 04:06:17;;;;;;;6.10;3.90;;;3.10;99.90;;;;;;2589144;54;20032;31
2022/01/20 04:08:56;;;;;;;7.67;3.97;;;3.10;99.90;;;;;;2585544;54;20931;31
2022/01/20 04:11:39;;;;;;;7.90;3.70;;;3.10;99.90;;;;;;2585560;54;20294;31
2022/01/20 04:17:01;;;;;;;7.28;4.30;;;3.20;99.90;;;;;;2585256;54;20081;31
2022/01/20 04:19:37;;;;;;;11.75;4.10;;;3.20;99.90;;;;;;2585653;54;20892;31
2022/01/20 04:22:12;;;;;;;8.52;4.45;;;3.20;99.90;;;;;;2584739;54;20022;31
2022/01/20 04:24:49;;;;;;;5.30;3.90;;;3.20;99.90;;;;;;2585583;54;20766;31
2022/01/20 04:30:17;;;;;;;14.47;4.40;;;3.20;99.90;;;;;;2585727;54;20911;31
2022/01/20 04:32:55;;;;;;;7.20;4.00;;;3.20;99.90;;;;;;2585727;54;20239;31
2022/01/20 04:35:28;;;;;;;9.15;3.95;;;3.10;99.90;;;;;;2603713;46;22001;31
2022/01/20 04:38:07;;;;;;;9.15;4.20;;;3.10;99.90;;;;;;2603945;46;20865;31
2022/01/20 04:40:43;;;;;;;8.45;3.50;;;3.20;99.90;;;;;;2683911;39;22283;31
2022/01/20 04:43:19;;;;;;;10.85;3.45;;;3.10;99.90;;;;;;2585566;54;20895;31
2022/01/20 04:46:03;;;;;;;16.33;3.75;;;3.10;99.90;;;;;;2585514;54;20032;31
2022/01/20 04:48:59;;;;;;;7.30;3.17;;;3.10;99.90;;;;;;2585555;54;20912;31
2022/01/20 04:57:16;;;;;;;8.70;2.80;;;3.10;99.90;;;;;;2585257;54;20026;31
2022/01/20 04:59:54;;;;;;;17.27;2.35;;;3.10;99.90;;;;;;2585486;54;20077;31
2022/01/20 05:02:34;;;;;;;13.40;2.70;;;3.10;99.90;;;;;;2585205;54;20033;31
2022/01/20 05:05:11;;;;;;;11.07;2.57;;;3.10;99.90;;;;;;2585742;54;20919;31
2022/01/20 05:07:49;;;;;;;13.55;2.75;;;3.10;99.90;;;;;;2585545;54;20246;31
2022/01/20 05:10:27;;;;;;;11.18;2.67;;;3.10;99.90;;;;;;2585639;54;20935;31
2022/01/20 05:13:11;;;;;;;14.07;2.77;;;3.10;99.90;;;;;;2587276;46;20036;31
2022/01/20 05:15:48;;;;;;;13.40;3.50;;;3.10;99.90;;;;;;2604133;46;21259;31
2022/01/20 05:18:25;;;;;;;12.95;2.97;;;3.20;99.90;;;;;;2603341;46;20929;31
2022/01/20 05:23:32;;;;;;;21.15;3.50;;;3.10;99.90;;;;;;2603516;46;20910;31
2022/01/20 05:26:13;;;;;;;11.80;2.70;;;3.10;99.90;;;;;;2585532;54;20057;31
2022/01/20 05:28:51;;;;;;;11.90;2.95;;;3.10;99.90;;;;;;2585787;54;21205;31
2022/01/20 05:31:28;;;;;;;10.80;3.00;;;3.10;99.90;;;;;;2604199;46;20953;31
2022/01/20 05:34:06;;;;;;;14.97;2.20;;;3.00;99.90;;;;;;2584949;54;20026;31
2022/01/20 05:36:40;;;;;;;13.30;2.50;;;3.00;99.90;;;;;;2585300;54;21129;31
2022/01/20 05:39:15;;;;;;;9.25;2.40;;;3.00;99.90;;;;;;2603952;46;20926;31
2022/01/20 05:41:50;;;;;;;12.80;2.00;;;2.90;99.90;;;;;;2603650;46;20876;31
2022/01/20 05:44:30;;;;;;;10.48;2.13;;;2.90;99.90;;;;;;2683523;39;21053;31
2022/01/20 05:47:10;;;;;;;12.30;2.10;;;2.90;99.90;;;;;;2585338;54;20030;31
2022/01/20 05:50:10;;;;;;;8.68;2.10;;;2.90;99.90;;;;;;2585502;54;20089;31
2022/01/20 05:52:44;;;;;;;8.48;1.92;;;2.90;99.90;;;;;;2603776;46;20904;31
2022/01/20 05:55:23;;;;;;;14.82;2.38;;;2.90;99.90;;;;;;2585330;54;21002;31
2022/01/20 05:57:55;;;;;;;10.35;1.75;;;2.90;99.90;;;;;;2585226;54;20027;31
2022/01/20 06:00:30;;;;;;;10.65;2.40;;;2.80;99.90;;;;;;2585229;54;20947;31
2022/01/20 06:05:57;;;;;;;12.27;2.85;;;2.70;99.90;;;;;;2585508;54;20948;31
2022/01/20 06:08:34;;;;;;;8.48;1.77;;;2.70;99.90;;;;;;2585372;54;20902;31
2022/01/20 06:11:09;;;;;;;9.67;2.07;;;2.70;99.90;;;;;;2585242;54;20898;31
2022/01/20 06:13:47;;;;;;;6.25;1.90;;;2.60;99.90;;;;;;2585548;54;21107;31
2022/01/20 06:16:24;;;;;;;6.37;1.50;;;2.60;99.90;;;;;;2585303;54;20026;31
2022/01/20 06:18:58;;;;;;;10.45;2.38;;;2.60;99.90;;;;;;2584895;54;20985;31
2022/01/20 06:21:31;;;;;;;6.80;1.45;;;2.50;99.90;;;;;;2585292;54;20049;31
2022/01/20 06:24:09;;;;;;;9.45;1.88;;;2.40;99.90;;;;;;2701788;39;22539;31
2022/01/20 06:26:41;;;;;;;9.63;1.57;;;2.40;99.90;;;;;;2585109;54;20032;31
2022/01/20 06:29:15;;;;;;;8.95;1.50;;;2.40;99.90;;;;;;2603644;46;21132;31
2022/01/20 06:31:48;;;;;;;10.65;1.60;;;2.40;99.90;;;;;;2585098;54;20049;31
2022/01/20 06:34:22;;;;;;;9.37;1.70;;;2.30;99.90;;;;;;2585325;54;20053;31
2022/01/20 06:37:00;;;;;;;8.82;1.60;;;2.30;99.90;;;;;;2585219;54;20246;31
2022/01/20 06:39:35;;;;;;;10.35;1.85;;;2.20;99.90;;;;;;2585323;54;20895;31
2022/01/20 06:42:06;;;;;;;13.20;2.38;;;2.10;99.90;;;;;;2603653;46;20088;31
2022/01/20 06:44:40;;;;;;;8.85;1.60;;;2.10;99.90;;;;;;2585264;54;20805;31
2022/01/20 06:47:15;;;;;;;10.00;2.17;;;2.10;99.90;;;;;;2585199;54;21000;31
2022/01/20 06:49:48;;;;;;;6.73;2.13;;;2.00;99.90;;;;;;2603499;46;20873;31
2022/01/20 06:52:22;;;;;;;14.63;2.10;;;2.00;99.90;;;;;;2585412;54;19934;31
2022/01/20 06:55:05;;;;;;;10.75;2.50;;;2.00;99.90;;;;;;2585194;54;20913;31
2022/01/20 06:57:42;;;;;;;4.55;1.35;;;2.00;99.90;;;;;;2584951;54;20053;31
2022/01/20 07:00:19;;;;;;;11.88;2.05;;;1.90;99.90;;;;;;2603241;46;20126;31
2022/01/20 07:02:55;;;;;;;11.77;2.10;;;2.00;99.90;;;;;;2585295;54;20107;31
2022/01/20 07:05:31;;;;;;;11.70;2.10;;;2.00;99.90;;;;;;2587809;47;20042;31
2022/01/20 07:08:10;;;;;;;7.55;2.25;;;1.90;99.90;;;;;;2584761;54;20093;31
2022/01/20 07:10:53;;;;;;;9.80;2.05;;;1.90;99.90;;;;;;2584945;54;20934;31
2022/01/20 07:13:27;;;;;;;9.75;2.38;;;1.90;99.90;;;;;;2585113;54;20939;31
2022/01/20 07:16:01;;;;;;;8.55;1.85;;;1.90;99.90;;;;;;2603593;47;20983;31
2022/01/20 07:18:38;;;;;;;6.03;2.33;;;2.00;99.90;;;;;;2584992;54;20026;31
2022/01/20 07:21:20;;;;;;;9.10;2.03;;;2.00;99.90;;;;;;2584977;54;20108;31
2022/01/20 07:24:01;;;;;;;13.23;2.93;;;2.10;99.90;;;;;;2585147;54;20862;31
2022/01/20 07:26:37;;;;;;;10.70;2.00;;;2.20;99.90;;;;;;2585184;54;22515;31
2022/01/20 07:29:34;;;;;;;13.48;2.78;;;2.30;99.90;;;;;;2584996;54;20927;31
2022/01/20 07:32:11;;;;;;;16.25;2.85;;;2.30;99.90;;;;;;2584959;54;20896;31
2022/01/20 07:34:45;;;;;;;16.77;3.83;;;2.30;99.90;;;;;;2585214;54;21261;31
2022/01/20 07:37:20;;;;;;;15.65;3.15;;;2.30;99.90;;;;;;2584897;54;20981;31
2022/01/20 07:39:57;;;;;;;16.23;2.72;;;2.30;99.90;;;;;;2583983;54;21272;31
2022/01/20 07:42:37;;;;;;;20.10;2.65;;;2.20;99.90;;;;;;2603656;47;20841;31
2022/01/20 07:45:21;;;;;;;14.70;3.53;;;2.30;99.90;;;;;;2585726;54;20967;31
2022/01/20 07:48:21;;;;;;;16.15;3.50;;;2.30;99.90;;;;;;2702479;39;22449;31
2022/01/20 07:51:01;;;;;;;17.40;3.80;;;2.40;99.90;;;;;;2585833;54;20896;31
2022/01/20 07:53:46;;;;;;;13.85;3.85;;;2.50;99.90;;;;;;2584913;54;20062;31
2022/01/20 07:56:22;;;;;;;19.00;4.30;;;2.50;99.90;;;;;;2584869;54;20898;31
2022/01/20 07:59:00;;;;;;;23.60;4.30;;;2.50;99.90;;;;;;2585405;54;20115;31
2022/01/20 08:01:37;;;;;;;17.23;3.10;;;2.60;99.90;;;;;;2604557;46;20961;31
2022/01/20 08:04:21;;;;;;;19.33;3.47;;;2.70;99.90;;;;;;2585717;54;20952;31
2022/01/20 08:06:56;;;;;;;18.00;3.35;;;2.70;99.90;;;;;;2585545;54;20671;31
2022/01/20 08:09:30;;;;;;;15.70;2.33;;;2.80;99.90;;;;;;2585738;54;20740;31
2022/01/20 08:12:29;;;;;;;18.30;3.15;;;2.70;99.90;;;;;;2683637;39;21126;31
2022/01/20 08:15:40;;;;;;;10.68;2.28;;;2.70;99.90;;;;;;2585731;54;20943;31
2022/01/20 10:01:44;;;;;;;6.50;0.80;;;0.00;99.90;;;;;;2625851;53;20328;31
2022/01/20 10:04:36;;;;;;;1.80;0.70;;;-0.10;99.90;;;;;;2587159;54;20951;31
2022/01/20 10:07:35;;;;;;;3.03;0.63;;;0.00;99.90;;;;;;2589692;54;20045;31
2022/01/20 10:10:25;;;;;;;4.20;0.90;;;0.10;99.90;;;;;;2589304;54;20909;31
2022/01/20 10:13:20;;;;;;;5.03;0.87;;;0.20;99.90;;;;;;2589587;54;20933;31
2022/01/20 10:16:10;;;;;;;4.82;0.68;;;0.10;99.90;;;;;;2589422;54;21019;31
2022/01/20 10:19:01;;;;;;;7.03;0.80;;;0.20;99.90;;;;;;2589214;54;20848;31
2022/01/20 10:21:47;;;;;;;4.43;1.00;;;0.20;99.90;;;;;;2607716;46;20902;31
2022/01/20 10:25:03;;;;;;;4.30;0.60;;;0.10;99.90;;;;;;2706295;38;22558;31
2022/01/20 10:27:57;;;;;;;8.95;1.35;;;0.10;99.90;;;;;;2589523;54;20890;31
2022/01/20 10:30:33;;;;;;;4.13;0.93;;;0.10;99.90;;;;;;2588786;54;20028;31
2022/01/20 10:33:11;;;;;;;3.50;0.70;;;0.10;99.90;;;;;;2597594;46;20817;31
2022/01/20 10:35:49;;;;;;;6.15;0.90;;;0.20;99.90;;;;;;2589305;54;20026;31
2022/01/20 10:38:39;;;;;;;5.05;0.80;;;0.30;99.90;;;;;;2589561;54;20022;31
2022/01/20 10:41:16;;;;;;;6.55;0.80;;;0.50;99.90;;;;;;2607703;46;20198;31
2022/01/20 10:47:18;;;;;;;4.25;0.90;;;0.80;99.90;;;;;;2589332;54;20951;31
2022/01/20 10:49:56;;;;;;;5.40;1.10;;;1.00;99.90;;;;;;2589233;54;20030;31
2022/01/20 10:52:41;;;;;;;5.00;0.80;;;1.40;99.90;;;;;;2589406;54;20073;31
2022/01/20 10:55:25;;;;;;;5.70;1.05;;;1.50;99.90;;;;;;2589398;54;21140;31
2022/01/20 10:58:12;;;;;;;16.70;1.70;;;1.60;99.90;;;;;;2593147;46;20945;31
2022/01/20 11:00:52;;;;;;;2.40;0.50;;;1.60;99.90;;;;;;2588758;54;22347;31
2022/01/20 11:03:30;;;;;;;8.77;0.70;;;1.60;99.90;;;;;;2585415;54;20799;31
2022/01/20 11:06:12;;;;;;;5.45;0.90;;;1.60;99.90;;;;;;2585822;54;20029;31
2022/01/20 11:09:00;;;;;;;4.90;1.10;;;1.60;99.90;;;;;;2585739;54;20987;31
2022/01/20 11:12:05;;;;;;;8.15;1.30;;;1.50;99.90;;;;;;2604141;46;20799;31
2022/01/20 11:14:55;;;;;;;7.30;1.30;;;1.50;99.90;;;;;;2585709;54;20974;31
2022/01/20 11:17:29;;;;;;;8.95;1.20;;;1.40;99.90;;;;;;2585693;54;20027;31
2022/01/20 11:22:37;;;;;;;4.60;1.10;;;1.30;99.90;;;;;;2585793;54;19986;31
2022/01/20 11:25:27;;;;;;;4.97;1.00;;;1.20;99.90;;;;;;2585474;54;20054;31
2022/01/20 11:28:15;;;;;;;0.75;0.30;;;1.10;99.90;;;;;;2585414;54;21136;31
2022/01/20 11:31:18;;;;;;;8.98;1.00;;;1.10;99.90;;;;;;2603705;46;20023;31
2022/01/20 11:34:03;;;;;;;3.85;0.60;;;1.10;99.90;;;;;;2585468;54;20970;31
2022/01/20 11:36:37;;;;;;;;;;;1.00;99.90;;;;;;2585915;54;20029;31
2022/01/20 11:39:34;;;;;;;5.78;0.77;;;1.00;99.90;;;;;;2585526;54;20634;31
2022/01/20 11:42:20;;;;;;;3.10;0.53;;;1.00;99.90;;;;;;2604081;46;21008;31
2022/01/20 11:44:53;;;;;;;4.95;0.65;;;1.00;99.90;;;;;;2585730;54;20903;31
2022/01/20 11:47:35;;;;;;;8.30;1.05;;;0.90;99.90;;;;;;2585695;54;20811;31
2022/01/20 11:50:19;;;;;;;6.15;0.95;;;0.90;99.90;;;;;;2604193;46;21035;31
2022/01/20 11:53:02;;;;;;;4.63;0.95;;;0.90;99.90;;;;;;2603863;46;20929;31
2022/01/20 11:55:44;;;;;;;7.10;1.15;;;1.00;99.90;;;;;;2585080;54;20037;31
2022/01/20 11:58:25;;;;;;;3.70;1.05;;;1.10;99.90;;;;;;2585663;54;20157;31
2022/01/20 12:01:04;;;;;;;6.40;1.45;;;1.10;99.90;;;;;;2604369;46;20902;31
2022/01/20 12:03:51;;;;;;;5.70;0.75;;;1.10;99.90;;;;;;2584833;54;20030;31
2022/01/20 12:09:14;;;;;;;4.75;0.65;;;1.20;99.90;;;;;;2585834;54;21075;31
2022/01/20 12:11:49;;;;;;;7.05;0.80;;;1.10;99.90;;;;;;2604227;46;20034;31
2022/01/20 12:14:35;;;;;;;5.75;1.10;;;1.10;99.90;;;;;;2604117;47;22592;31
2022/01/20 12:17:14;;;;;;;3.53;0.80;;;1.10;99.90;;;;;;2585417;54;21048;31
2022/01/20 12:19:56;;;;;;;6.28;0.90;;;1.10;99.90;;;;;;2604102;46;20242;31
2022/01/20 12:22:31;;;;;;;5.72;1.30;;;1.10;99.90;;;;;;2604048;46;20820;31
2022/01/20 12:25:09;;;;;;;11.00;1.83;;;1.20;99.90;;;;;;2604095;46;20161;31
2022/01/20 12:27:46;;;;;;;7.68;1.50;;;1.20;99.90;;;;;;2585339;54;20843;31
2022/01/20 12:30:47;;;;;;;5.68;1.02;;;1.20;99.90;;;;;;2603842;46;20038;31
2022/01/20 12:33:28;;;;;;;7.00;1.27;;;1.10;99.90;;;;;;2585402;54;20829;31
2022/01/20 12:36:06;;;;;;;6.15;1.20;;;1.10;99.90;;;;;;2585382;54;20786;31
2022/01/20 12:38:44;;;;;;;4.32;0.88;;;1.10;99.90;;;;;;2584744;54;20030;31
2022/01/20 12:41:23;;;;;;;11.35;2.25;;;1.10;99.90;;;;;;2585516;54;20955;31
2022/01/20 12:44:04;;;;;;;6.65;1.25;;;1.20;99.90;;;;;;2585516;54;20917;31
2022/01/20 12:46:42;;;;;;;5.85;1.20;;;1.30;99.90;;;;;;2585546;54;20026;31
2022/01/20 12:49:17;;;;;;;8.20;1.70;;;1.30;99.90;;;;;;2604020;46;20976;31
2022/01/20 12:51:54;;;;;;;9.30;1.83;;;1.30;99.90;;;;;;2585264;54;20046;31
2022/01/20 12:54:33;;;;;;;7.13;1.50;;;1.30;99.90;;;;;;2585591;54;20092;31
2022/01/20 12:57:14;;;;;;;9.90;1.83;;;1.40;99.90;;;;;;2603716;46;20794;31
2022/01/20 12:59:46;;;;;;;7.88;1.60;;;1.40;99.90;;;;;;2585598;54;20022;31
2022/01/20 13:02:29;;;;;;;9.60;1.10;;;1.40;99.90;;;;;;2585465;54;20033;31
2022/01/20 13:05:05;;;;;;;8.00;1.38;;;1.40;99.90;;;;;;2603716;46;20023;31
2022/01/20 13:07:42;;;;;;;4.95;1.00;;;1.40;99.90;;;;;;2585532;54;20902;31
2022/01/20 13:10:34;;;;;;;5.45;1.15;;;1.40;99.90;;;;;;2585335;54;20037;31
2022/01/20 13:13:12;;;;;;;7.77;1.03;;;1.40;99.90;;;;;;2585390;54;21624;31
2022/01/20 13:15:48;;;;;;;4.90;1.20;;;1.40;99.90;;;;;;2585164;54;20045;31
2022/01/20 13:18:27;;;;;;;6.75;1.40;;;1.40;99.90;;;;;;2585558;54;20028;31
2022/01/20 13:21:00;;;;;;;11.17;1.73;;;1.50;99.90;;;;;;2585217;54;20914;31
2022/01/20 13:23:58;;;;;;;3.83;0.70;;;1.60;99.90;;;;;;2603658;46;20029;31
2022/01/20 13:26:33;;;;;;;8.80;1.20;;;1.60;99.90;;;;;;2585260;54;20052;31
2022/01/20 13:29:07;;;;;;;7.18;1.25;;;1.60;99.90;;;;;;2585192;54;20106;31
2022/01/20 13:31:48;;;;;;;9.75;1.50;;;1.60;99.90;;;;;;2584165;54;20919;31
2022/01/20 13:34:33;;;;;;;10.30;1.25;;;1.60;99.90;;;;;;2603693;46;20085;31
2022/01/20 13:37:16;;;;;;;9.70;1.27;;;1.50;99.90;;;;;;2603590;46;21004;31
2022/01/20 13:39:58;;;;;;;9.63;1.53;;;1.50;99.90;;;;;;2603964;46;20042;31
2022/01/20 13:42:38;;;;;;;4.78;1.15;;;1.50;99.90;;;;;;2603632;46;20821;31
2022/01/20 13:45:18;;;;;;;9.13;1.40;;;1.40;99.90;;;;;;2585512;54;21201;31
2022/01/20 13:47:55;;;;;;;3.20;1.10;;;1.40;99.90;;;;;;2584176;54;20900;31
2022/01/20 13:50:34;;;;;;;4.80;1.00;;;1.30;99.90;;;;;;2584350;54;20097;31
2022/01/20 13:53:19;;;;;;;6.05;1.25;;;1.30;99.90;;;;;;2589054;47;20954;31
2022/01/20 13:55:52;;;;;;;8.07;1.60;;;1.30;99.90;;;;;;2585389;54;19935;31
2022/01/20 13:58:29;;;;;;;6.80;1.45;;;1.30;99.90;;;;;;2585019;54;21154;31
2022/01/20 14:01:08;;;;;;;4.60;1.45;;;1.20;99.90;;;;;;2585376;54;20073;31
2022/01/20 14:03:46;;;;;;;9.82;1.58;;;1.20;99.90;;;;;;2584906;54;20849;31
2022/01/20 14:06:24;;;;;;;14.60;1.60;;;1.20;99.90;;;;;;2585332;54;20026;31
2022/01/20 14:08:57;;;;;;;7.65;1.30;;;1.20;99.90;;;;;;2585073;54;20052;31
2022/01/20 14:11:31;;;;;;;9.50;1.47;;;1.10;99.90;;;;;;2585090;54;20990;31
2022/01/20 14:14:08;;;;;;;9.38;1.95;;;1.20;99.90;;;;;;2585036;54;20169;31
2022/01/20 14:16:41;;;;;;;8.10;1.25;;;1.10;99.90;;;;;;2585195;54;20048;31
2022/01/20 14:19:22;;;;;;;7.37;1.67;;;1.20;99.90;;;;;;2584329;54;20849;31
2022/01/20 14:22:00;;;;;;;8.17;0.90;;;1.20;99.90;;;;;;2585104;54;20029;31
2022/01/20 14:24:34;;;;;;;11.90;1.80;;;1.20;99.90;;;;;;2585036;54;20265;31
2022/01/20 14:27:15;;;;;;;6.50;1.30;;;1.30;99.90;;;;;;2585071;54;20807;31
2022/01/20 14:29:48;;;;;;;7.75;1.60;;;1.20;99.90;;;;;;2585008;54;20080;31
2022/01/20 14:32:24;;;;;;;10.13;1.83;;;1.20;99.90;;;;;;2584980;54;20909;31
2022/01/20 14:34:57;;;;;;;7.83;1.77;;;1.20;99.90;;;;;;2585204;54;20813;31
2022/01/20 14:37:28;;;;;;;9.15;1.95;;;1.20;99.90;;;;;;2585474;54;20234;31
2022/01/20 14:40:05;;;;;;;12.30;2.00;;;1.20;99.90;;;;;;2604288;46;20972;31
2022/01/20 14:42:38;;;;;;;9.85;2.10;;;1.20;99.90;;;;;;2683903;39;22449;31
2022/01/20 14:45:12;;;;;;;8.93;1.70;;;1.20;99.90;;;;;;2686881;39;22334;31
2022/01/20 14:47:45;;;;;;;14.15;2.20;;;1.20;99.90;;;;;;2684126;39;22464;31
2022/01/20 14:50:18;;;;;;;6.00;1.10;;;1.20;99.90;;;;;;2604326;46;22402;31
2022/01/20 14:52:52;;;;;;;10.60;1.95;;;1.20;99.90;;;;;;2585683;54;20023;31
2022/01/20 14:55:27;;;;;;;10.57;2.37;;;1.10;99.90;;;;;;2604354;46;20022;31
2022/01/20 14:58:02;;;;;;;11.18;2.08;;;1.10;99.90;;;;;;2604255;46;20943;31
2022/01/20 15:00:35;;;;;;;7.57;1.33;;;1.00;99.90;;;;;;2585613;54;20087;31
2022/01/20 15:03:09;;;;;;;6.45;1.15;;;1.10;99.90;;;;;;2585517;54;20119;31
2022/01/20 15:05:45;;;;;;;7.78;1.60;;;1.10;99.90;;;;;;2585697;54;20790;31
2022/01/20 15:08:22;;;;;;;10.23;2.00;;;1.00;99.90;;;;;;2585881;54;20816;31
2022/01/20 15:10:57;;;;;;;10.57;1.83;;;1.00;99.90;;;;;;2604122;46;20926;31
2022/01/20 15:13:29;;;;;;;9.20;1.50;;;0.90;99.90;;;;;;2604159;46;20019;31
2022/01/20 15:16:04;;;;;;;10.52;2.22;;;0.90;99.90;;;;;;2585649;54;20800;31
2022/01/20 15:18:40;;;;;;;9.85;2.15;;;0.90;99.90;;;;;;2585786;54;20023;31
2022/01/20 15:21:14;;;;;;;9.05;2.05;;;0.80;99.90;;;;;;2585512;54;20993;31
2022/01/20 15:23:47;;;;;;;8.23;1.83;;;0.90;99.90;;;;;;2683820;39;22412;31
2022/01/20 15:26:22;;;;;;;6.95;1.60;;;0.80;99.90;;;;;;2604169;46;20794;31
2022/01/20 15:28:58;;;;;;;5.10;1.50;;;0.80;99.90;;;;;;2585820;54;20905;31
2022/01/20 15:31:36;;;;;;;10.27;2.30;;;0.70;99.90;;;;;;2585543;54;20027;31
2022/01/20 15:34:14;;;;;;;13.13;1.77;;;0.80;99.90;;;;;;2585346;54;21309;31
2022/01/20 15:36:51;;;;;;;10.50;2.53;;;0.70;99.90;;;;;;2585780;54;20036;31
2022/01/20 15:39:26;;;;;;;9.50;1.80;;;0.70;99.90;;;;;;2585718;54;20919;31
2022/01/20 15:41:57;;;;;;;5.30;1.55;;;0.60;99.90;;;;;;2604299;46;20933;31
2022/01/20 15:44:35;;;;;;;10.63;2.08;;;0.60;99.90;;;;;;2585666;54;20153;31
2022/01/20 15:47:18;;;;;;;13.45;2.30;;;0.60;99.90;;;;;;2585556;54;20907;31
2022/01/20 15:49:50;;;;;;;12.40;1.85;;;0.60;99.90;;;;;;2585720;54;20836;31
2022/01/20 15:52:22;;;;;;;12.43;3.63;;;0.50;99.90;;;;;;2604219;46;21216;31
2022/01/20 15:54:56;;;;;;;13.20;3.15;;;0.80;99.90;;;;;;2585585;54;20948;31
2022/01/20 16:03:15;;;;;;;15.13;2.90;;;0.70;99.90;;;;;;2585536;54;20831;31
2022/01/20 16:05:49;;;;;;;11.70;3.00;;;0.60;99.90;;;;;;2585720;54;20034;31
2022/01/20 16:08:21;;;;;;;13.95;2.65;;;0.60;99.90;;;;;;2585508;54;20050;31
2022/01/20 16:10:56;;;;;;;15.85;3.60;;;0.50;99.90;;;;;;2585784;54;20065;31
2022/01/20 16:13:37;;;;;;;12.32;4.00;;;0.50;99.90;;;;;;2604023;46;20026;31
2022/01/20 16:16:13;;;;;;;9.50;3.10;;;0.40;99.90;;;;;;2585532;54;20108;31
2022/01/20 16:18:50;;;;;;;12.30;3.10;;;0.40;99.90;;;;;;2585393;54;20919;31
2022/01/20 16:21:25;;;;;;;15.82;3.28;;;0.40;99.90;;;;;;2585707;54;20053;31
2022/01/20 16:23:58;;;;;;;14.55;3.00;;;0.30;99.90;;;;;;2585276;54;20038;31
2022/01/20 16:26:32;;;;;;;13.20;3.40;;;0.30;99.90;;;;;;2585277;54;20088;31
2022/01/20 16:29:06;;;;;;;16.35;3.20;;;0.30;99.90;;;;;;2585337;54;20073;31
2022/01/20 16:31:41;;;;;;;13.30;3.05;;;0.30;99.90;;;;;;2585606;54;20900;31
2022/01/20 16:34:18;;;;;;;10.05;2.53;;;0.30;99.90;;;;;;2604385;46;20972;31
2022/01/20 16:36:51;;;;;;;13.80;2.20;;;0.30;99.90;;;;;;2585446;54;22451;31
2022/01/20 16:39:25;;;;;;;7.00;1.60;;;0.30;99.90;;;;;;2585615;54;20053;31
2022/01/20 16:41:59;;;;;;;11.70;1.50;;;0.20;99.90;;;;;;2585696;54;20026;31
2022/01/20 16:44:33;;;;;;;10.13;1.50;;;0.10;99.90;;;;;;2585884;54;20950;31
2022/01/20 16:47:08;;;;;;;11.20;1.80;;;0.00;99.90;;;;;;2585361;54;19985;31
2022/01/20 16:50:00;;;;;;;11.05;1.90;;;-0.10;99.90;;;;;;2585650;54;21896;31
2022/01/20 16:52:42;;;;;;;10.73;1.50;;;-0.20;99.90;;;;;;2603939;46;21070;31
2022/01/20 16:55:27;;;;;;;7.93;1.50;;;-0.40;99.90;;;;;;2585766;54;20879;31
2022/01/20 17:01:12;;;;;;;5.13;1.30;;;-0.60;99.90;;;;;;2584743;54;20034;31
2022/01/20 17:03:46;;;;;;;5.10;1.23;;;-0.70;99.90;;;;;;2585645;54;20847;31
2022/01/20 17:06:22;;;;;;;4.30;1.10;;;-0.70;99.90;;;;;;2683585;39;21104;31
2022/01/20 17:08:58;;;;;;;7.90;1.50;;;-0.80;99.90;;;;;;2603739;46;20876;31
2022/01/20 17:11:36;;;;;;;4.70;1.35;;;-0.80;99.90;;;;;;2603753;46;20153;31
2022/01/20 17:14:11;;;;;;;9.50;1.70;;;-0.90;99.90;;;;;;2585148;54;20030;31
2022/01/20 17:16:44;;;;;;;3.28;1.55;;;-0.90;99.90;;;;;;2585114;54;20031;31